• Join FlightAware (Why Join?)
  • Login
  • US Flag 
12:07PM EDT


 

Airport Tracker/Info


-or-


 

Live Flight TrackerFlight Track Log ✈ SWA2428 ✈ 20-Apr-2013 ✈ KONT - KSMF

Flight Track Log - Related Links

Times and Time Zones

All times are in EDT time to prevent confusion due to time zone crossing. See the SWA2428 flight status page for this flight to view local times or setup timezone preferences in your user account.

Time Position Orientation Groundspeed Altitude Reporting Facility
EDT Latitude Longitude Course Direction KTS MPH feet Rate Location/Type
10:59AM 34.0594 -117.6264 268° West 157 181 2,200  Level Los Angeles Center
11:00AM 34.0564 -117.7150 268° West 235 270 5,300 2,340 Climbing Los Angeles Center
11:01AM 34.0850 -117.7967 293° West 263 303 7,000 2,640 Climbing Los Angeles Center
11:02AM 34.1342 -117.8681 310° West 276 318 10,800 3,240 Climbing Los Angeles Center
11:03AM 34.1883 -117.9464 310° West 301 346 13,700 3,180 Climbing Los Angeles Center
11:04AM 34.2489 -118.0361 309° West 341 392 17,400 3,420 Climbing Los Angeles Center
11:05AM 34.3114 -118.1283 309° West 355 409 20,800 3,060 Climbing Los Angeles Center
11:06AM 34.3764 -118.2261 309° West 369 425 23,700 3,000 Climbing Los Angeles Center
11:07AM 34.4583 -118.3478 309° West 387 445 27,000 2,760 Climbing Los Angeles Center
11:08AM 34.5292 -118.4506 310° West 398 458 29,400 2,340 Climbing Los Angeles Center
11:09AM 34.6250 -118.5239 328° Northwest 411 473 31,800 2,100 Climbing Los Angeles Center
11:10AM 34.7247 -118.5889 332° Northwest 408 470 33,800 1,920 Climbing Los Angeles Center
11:11AM 34.8247 -118.6556 331° Northwest 410 472 35,800 1,980 Climbing Los Angeles Center
11:12AM 34.9314 -118.7258 332° Northwest 406 467 38,000 1,020 Climbing Los Angeles Center
11:13AM 35.0286 -118.7908 331° Northwest 400 460 38,000  Level Los Angeles Center
11:14AM 35.1253 -118.8556 331° Northwest 398 458 38,000 360 Level Los Angeles Center
11:15AM 35.2244 -118.9214 332° Northwest 405 466 38,800 960 Climbing Los Angeles Center
11:16AM 35.3422 -118.9983 332° Northwest 403 464 40,000 540 Climbing Los Angeles Center
11:18AM 35.4392 -119.0636 331° Northwest 400 460 40,000  Level Los Angeles Center
11:19AM 35.5386 -119.1236 334° Northwest 399 459 40,000  Level Los Angeles Center
11:20AM 35.6425 -119.1767 337° Northwest 402 463 40,000  Level Los Angeles Center
11:20AM 35.7000 -119.2058 338° Northwest 403 464 40,000  Level Oakland Center
11:21AM 35.8047 -119.2575 338° Northwest 405 466 40,000  Level Oakland Center
11:22AM 35.9092 -119.3128 337° Northwest 408 470 40,000  Level Oakland Center
11:23AM 36.0036 -119.3775 331° Northwest 397 457 40,000  Level Oakland Center
11:24AM 36.1008 -119.4414 332° Northwest 395 455 40,000  Level Oakland Center
11:25AM 36.1964 -119.5072 331° Northwest 395 455 40,000  Level Oakland Center
11:26AM 36.2925 -119.5717 332° Northwest 397 457 40,000 -180 Level Oakland Center
11:27AM 36.4078 -119.6494 332° Northwest 396 456 39,700 -660 Descending Oakland Center
11:28AM 36.5028 -119.7142 331° Northwest 392 451 38,700 -960 Descending Oakland Center
11:29AM 36.5975 -119.7806 331° Northwest 392 451 37,800 -960 Descending Oakland Center
11:30AM 36.6931 -119.8464 331° Northwest 394 453 36,800 -960 Descending Oakland Center
11:31AM 36.7886 -119.9114 331° Northwest 392 451 35,900 -960 Descending Oakland Center
11:32AM 36.8833 -119.9769 331° Northwest 390 449 34,900 -960 Descending Oakland Center
11:33AM 36.9794 -120.0436 331° Northwest 396 456 34,000 -1,080 Descending Oakland Center
11:34AM 37.0856 -120.1178 331° Northwest 397 457 32,800 -1,740 Descending Oakland Center
11:35AM 37.1733 -120.1781 331° Northwest 391 450 30,500 -2,340 Descending Oakland Center
11:36AM 37.2639 -120.2425 330° Northwest 379 436 28,100 -2,400 Descending Oakland Center
11:37AM 37.3561 -120.3078 331° Northwest 380 437 25,700 -2,100 Descending Oakland Center
11:38AM 37.4447 -120.3675 332° Northwest 368 423 23,900 -1,680 Descending Oakland Center
11:39AM 37.5000 -120.4167 325° Northwest 357 411 23,200 -1,200 Descending Northern Cal TRACON
11:40AM 37.5667 -120.5000 315° West 352 405 22,200 -960 Descending Northern Cal TRACON
11:41AM 37.6500 -120.5667 328° Northwest 346 398 21,300 -960 Descending Northern Cal TRACON
11:42AM 37.6892 -120.6125 317° Northwest 348 400 20,700 -1,140 Descending Oakland Center
11:42AM 37.7167 -120.6500 313° West 343 395 20,200 -1,080 Descending Northern Cal TRACON
11:43AM 37.7833 -120.7167 322° Northwest 339 390 19,300 -1,020 Descending Northern Cal TRACON
11:44AM 37.8667 -120.7833 328° Northwest 336 387 18,300 -960 Descending Northern Cal TRACON
11:45AM 37.9100 -120.8342 317° Northwest 337 388 17,700 -840 Descending Oakland Center
11:46AM 37.9811 -120.9061 321° Northwest 330 380 16,900 -900 Descending Oakland Center
11:47AM 38.0514 -120.9781 321° Northwest 326 375 15,900 -1,020 Descending Oakland Center
11:48AM 38.1147 -121.0581 315° West 321 369 14,900 -1,020 Descending Oakland Center
11:49AM 38.1711 -121.1442 310° West 317 365 13,900 -1,440 Descending Oakland Center
11:50AM 38.2278 -121.2289 310° West 315 362 12,000 -1,860 Descending Oakland Center
11:51AM 38.3000 -121.3333 311° West 286 329 10,000 -1,860 Descending Northern Cal TRACON
11:52AM 38.3333 -121.4000 303° West 261 300 8,200 -1,860 Descending Northern Cal TRACON
11:53AM 38.3833 -121.4667 314° West 258 297 6,300 -1,500 Descending Northern Cal TRACON
11:54AM 38.4333 -121.5333 314° West 245 282 5,200 -1,140 Descending Northern Cal TRACON
11:55AM 38.4833 -121.5667 332° Northwest 211 243 4,200 -1,140 Descending Northern Cal TRACON
11:56AM 38.5333 -121.5833 345° North 197 227 3,100 -1,080 Descending Northern Cal TRACON
11:57AM 38.5833 -121.6000 345° North 171 197 2,100 -900 Descending Northern Cal TRACON
11:58AM 38.6167 -121.6000 360° North 117 135 1,400 -660 Descending Northern Cal TRACON
11:59AM 38.6500 -121.6000 360° North 114 131 900 -660 Descending Northern Cal TRACON
12:00PM 38.6833 -121.6000 360° North 119 137 200 -720 Descending Northern Cal TRACON
12:02PM 38.6833 -121.5833 46° Northeast  Level FlightAware Approximate
12:09PM 38.6954 -121.5908 46° Northeast  Level Estimated